Time;durP1;ratioP1;P1;durP2;ratioP2;P2;SDS_P1;SDS_P2;PMS_P1;PMS_P2;Temp;Humidity;BMP_temperature;BMP_pressure;BME280_temperature;BME280_humidity;BME280_pressure;Samples;Min_cycle;Max_cycle;Signal;HPM_P1;HPM_P2
2021/05/08 00:00:25;;;;;;;1.63;0.60;;;17.00;72.00;;;;;;5103295;28;20170;-75
2021/05/08 00:02:51;;;;;;;0.70;0.70;;;17.10;72.60;;;;;;5103999;28;20178;-76
2021/05/08 00:05:17;;;;;;;1.50;0.50;;;17.10;72.10;;;;;;5103059;28;20174;-75
2021/05/08 00:07:43;;;;;;;0.90;0.65;;;17.10;71.90;;;;;;5099013;28;20178;-76
2021/05/08 00:10:11;;;;;;;3.42;0.40;;;17.10;71.30;;;;;;5102878;28;20181;-75
2021/05/08 00:12:37;;;;;;;1.27;0.90;;;17.10;71.90;;;;;;5103010;28;20230;-75
2021/05/08 00:15:03;;;;;;;4.75;0.63;;;17.20;72.20;;;;;;5102960;28;20190;-75
2021/05/08 00:17:30;;;;;;;2.22;0.75;;;17.10;71.90;;;;;;5098809;28;20197;-76
2021/05/08 00:19:55;;;;;;;5.47;0.88;;;17.10;72.20;;;;;;5102667;28;20181;-75
2021/05/08 00:22:21;;;;;;;0.80;0.52;;;17.20;71.50;;;;;;5099864;28;20181;-75
2021/05/08 00:24:47;;;;;;;3.05;0.70;;;17.10;72.00;;;;;;5104552;28;20212;-75
2021/05/08 00:27:12;;;;;;;1.02;0.80;;;17.10;72.10;;;;;;5103213;28;20209;-76
2021/05/08 00:29:38;;;;;;;1.13;0.60;;;17.00;71.60;;;;;;5083346;28;20182;-77
2021/05/08 00:32:04;;;;;;;0.60;0.60;;;16.90;70.60;;;;;;5102989;28;20189;-75
2021/05/08 00:34:30;;;;;;;1.08;0.90;;;16.80;69.70;;;;;;5085734;28;20220;-75
2021/05/08 00:36:56;;;;;;;0.50;0.50;;;16.80;69.50;;;;;;5101099;28;20922;-76
2021/05/08 00:39:21;;;;;;;0.45;0.45;;;16.70;69.40;;;;;;5105526;28;20673;-76
2021/05/08 00:41:48;;;;;;;0.70;0.68;;;16.70;69.70;;;;;;5104887;28;20186;-76
2021/05/08 00:44:15;;;;;;;0.88;0.88;;;16.60;70.20;;;;;;5106740;28;20638;-76
2021/05/08 00:46:41;;;;;;;1.92;0.98;;;16.50;70.50;;;;;;5101629;28;20180;-75
2021/05/08 00:49:07;;;;;;;1.77;0.95;;;16.40;71.90;;;;;;5104300;28;20238;-75
2021/05/08 00:51:33;;;;;;;1.02;1.00;;;16.30;72.80;;;;;;5099544;28;20643;-75
2021/05/08 00:53:59;;;;;;;1.50;1.45;;;16.20;73.50;;;;;;5101214;28;20217;-76
2021/05/08 00:56:25;;;;;;;3.72;1.77;;;16.00;74.90;;;;;;5103906;28;20174;-75
2021/05/08 00:58:51;;;;;;;9.00;2.03;;;15.90;76.40;;;;;;5101108;28;20182;-75
2021/05/08 01:01:17;;;;;;;3.13;2.13;;;15.70;77.50;;;;;;5101021;28;20200;-76
2021/05/08 01:03:44;;;;;;;2.80;2.13;;;15.50;78.10;;;;;;5102893;28;20186;-76
2021/05/08 01:06:10;;;;;;;2.00;2.00;;;15.40;79.40;;;;;;5105320;28;20208;-75
2021/05/08 01:08:37;;;;;;;2.38;2.28;;;15.20;80.00;;;;;;5107352;28;20299;-75
2021/05/08 01:11:04;;;;;;;3.15;3.00;;;15.00;80.80;;;;;;5106841;28;20177;-75
2021/05/08 01:13:31;;;;;;;3.38;2.38;;;14.90;81.50;;;;;;5103956;28;20214;-75
2021/05/08 01:15:57;;;;;;;3.15;2.83;;;14.70;81.90;;;;;;5098152;28;20189;-75
2021/05/08 01:18:22;;;;;;;5.30;2.75;;;14.60;82.40;;;;;;5104924;28;20181;-75
2021/05/08 01:20:49;;;;;;;3.58;3.17;;;14.40;83.10;;;;;;5105640;28;20243;-75
2021/05/08 01:23:16;;;;;;;3.53;3.15;;;14.30;83.30;;;;;;5107285;28;20190;-75
2021/05/08 01:25:41;;;;;;;3.83;3.53;;;14.10;83.80;;;;;;5105225;28;20177;-75
2021/05/08 01:28:07;;;;;;;3.25;2.85;;;14.00;84.30;;;;;;5102069;28;20669;-76
2021/05/08 01:30:35;;;;;;;3.97;3.78;;;13.90;84.60;;;;;;5106147;28;20173;-75
2021/05/08 01:33:02;;;;;;;3.75;3.42;;;13.80;84.90;;;;;;5104466;28;20209;-75
2021/05/08 01:35:29;;;;;;;3.53;3.35;;;13.60;85.60;;;;;;5103076;28;20173;-75
2021/05/08 01:37:55;;;;;;;6.43;3.55;;;13.60;85.60;;;;;;5104757;28;20184;-75
2021/05/08 01:40:27;;;;;;;3.35;3.15;;;13.40;86.20;;;;;;5106286;28;20174;-75
2021/05/08 01:42:53;;;;;;;3.78;3.42;;;13.40;85.40;;;;;;5102677;28;20186;-75
2021/05/08 01:45:20;;;;;;;3.70;3.42;;;13.30;86.40;;;;;;5106726;28;20239;-74
2021/05/08 01:47:47;;;;;;;4.10;3.72;;;13.30;86.60;;;;;;5097339;28;20221;-75
2021/05/08 01:50:19;;;;;;;3.50;3.33;;;13.20;86.60;;;;;;5106138;28;20642;-75
2021/05/08 01:52:45;;;;;;;3.65;3.35;;;13.10;86.60;;;;;;5102472;28;20215;-74
2021/05/08 01:55:23;;;;;;;4.50;3.10;;;13.10;86.60;;;;;;5107522;28;20190;-75
2021/05/08 01:57:53;;;;;;;2.88;2.78;;;13.00;86.20;;;;;;5104692;28;20236;-76
2021/05/08 02:00:38;;;;;;;3.10;2.47;;;13.00;86.60;;;;;;5106886;28;20185;-76
2021/05/08 02:03:04;;;;;;;2.80;2.70;;;13.00;86.50;;;;;;5104562;28;20249;-76
2021/05/08 02:05:32;;;;;;;6.72;3.13;;;12.90;86.60;;;;;;5103538;28;20186;-74
2021/05/08 02:08:03;;;;;;;2.45;2.25;;;12.90;86.60;;;;;;5103356;28;20184;-75
2021/05/08 02:10:30;;;;;;;2.65;2.55;;;12.90;86.70;;;;;;5106088;28;20280;-76
2021/05/08 02:13:00;;;;;;;3.10;2.00;;;12.80;86.70;;;;;;5106894;28;20201;-75
2021/05/08 02:15:25;;;;;;;1.67;1.67;;;12.80;86.40;;;;;;5104123;28;20655;-76
2021/05/08 02:17:51;;;;;;;1.98;1.88;;;12.80;86.30;;;;;;5104884;28;20177;-77
2021/05/08 02:20:22;;;;;;;2.25;1.80;;;12.70;85.80;;;;;;5099315;28;20832;-76
2021/05/08 02:22:48;;;;;;;2.05;1.48;;;12.70;85.90;;;;;;5105713;28;20173;-76
2021/05/08 02:25:15;;;;;;;3.00;1.65;;;12.70;85.70;;;;;;5105955;28;20182;-76
2021/05/08 02:27:41;;;;;;;1.42;1.33;;;12.60;85.50;;;;;;5105679;28;20188;-76
2021/05/08 02:30:09;;;;;;;5.70;0.93;;;12.60;85.10;;;;;;5084391;28;20294;-76
2021/05/08 02:32:36;;;;;;;1.17;1.05;;;12.60;85.20;;;;;;5104788;28;20321;-76
2021/05/08 02:35:05;;;;;;;1.67;1.67;;;12.60;84.90;;;;;;5095045;28;20583;-77
2021/05/08 02:37:31;;;;;;;1.30;1.20;;;12.50;84.40;;;;;;5120178;27;20675;-76
2021/05/08 02:39:58;;;;;;;4.68;1.05;;;12.50;84.20;;;;;;5099717;28;20178;-75
2021/05/08 02:42:23;;;;;;;1.00;1.00;;;12.40;84.20;;;;;;5104668;28;20178;-76
2021/05/08 02:44:49;;;;;;;1.17;1.10;;;12.40;83.80;;;;;;5105095;28;20205;-75
2021/05/08 02:47:18;;;;;;;0.95;0.85;;;12.30;83.80;;;;;;5106636;28;20739;-76
2021/05/08 02:49:49;;;;;;;0.82;0.82;;;12.30;84.20;;;;;;5101328;28;20174;-74
2021/05/08 02:52:15;;;;;;;0.88;0.88;;;12.20;83.90;;;;;;5103856;28;20258;-75
2021/05/08 02:54:41;;;;;;;0.50;0.50;;;12.10;84.00;;;;;;5101281;28;20185;-75
2021/05/08 02:57:07;;;;;;;0.70;0.70;;;12.00;84.40;;;;;;5102801;28;20259;-74
2021/05/08 03:02:18;;;;;;;0.70;0.70;;;11.90;84.60;;;;;;5104332;28;20180;-75
2021/05/08 03:04:44;;;;;;;0.80;0.80;;;11.80;84.60;;;;;;5100995;28;20580;-75
2021/05/08 03:07:10;;;;;;;0.70;0.70;;;11.70;85.00;;;;;;5085602;28;20176;-75
2021/05/08 03:09:35;;;;;;;0.53;0.53;;;11.60;85.30;;;;;;5105152;28;20324;-74
2021/05/08 03:12:03;;;;;;;0.60;0.60;;;11.50;85.40;;;;;;5100969;28;20206;-76
2021/05/08 03:14:29;;;;;;;2.13;0.77;;;11.40;85.70;;;;;;5103473;28;20218;-76
2021/05/08 03:16:57;;;;;;;0.70;0.70;;;11.40;85.80;;;;;;5101076;28;21572;-76
2021/05/08 03:19:23;;;;;;;0.40;0.40;;;11.30;86.00;;;;;;5085321;28;20766;-75
2021/05/08 03:21:49;;;;;;;0.40;0.40;;;11.30;85.90;;;;;;5102374;28;20178;-76
2021/05/08 03:24:14;;;;;;;0.50;0.50;;;11.20;86.20;;;;;;5104674;28;20210;-76
2021/05/08 03:26:40;;;;;;;0.50;0.50;;;11.20;86.20;;;;;;5103067;28;20177;-75
2021/05/08 03:29:06;;;;;;;0.83;0.40;;;11.20;86.30;;;;;;5100012;28;20192;-76
2021/05/08 03:31:32;;;;;;;0.40;0.40;;;11.20;86.50;;;;;;5101643;28;20269;-74
2021/05/08 03:33:59;;;;;;;1.53;0.50;;;11.10;86.60;;;;;;5099841;28;20254;-75
2021/05/08 03:36:25;;;;;;;0.30;0.30;;;11.00;86.50;;;;;;5102116;28;20170;-75
2021/05/08 03:38:51;;;;;;;0.40;0.40;;;11.00;86.80;;;;;;5103552;28;20184;-75
2021/05/08 03:41:17;;;;;;;0.60;0.50;;;11.00;86.80;;;;;;5098666;28;20182;-75
2021/05/08 03:43:43;;;;;;;0.40;0.40;;;11.00;86.60;;;;;;5102217;28;20213;-75
2021/05/08 03:46:08;;;;;;;0.40;0.30;;;11.00;87.00;;;;;;5103815;28;20672;-76
2021/05/08 03:48:34;;;;;;;0.40;0.40;;;11.10;86.90;;;;;;5105477;28;20698;-76
2021/05/08 03:51:00;;;;;;;2.00;0.60;;;11.10;86.90;;;;;;5105020;28;20177;-75
2021/05/08 03:53:26;;;;;;;1.07;0.57;;;11.10;86.90;;;;;;5103982;28;20182;-76
2021/05/08 03:55:52;;;;;;;0.50;0.50;;;11.10;86.80;;;;;;5098298;28;20185;-74
2021/05/08 03:58:21;;;;;;;0.40;0.40;;;11.00;86.90;;;;;;5101951;28;20205;-75
2021/05/08 04:00:48;;;;;;;1.07;0.90;;;11.00;87.00;;;;;;5101057;28;20572;-76
2021/05/08 04:03:14;;;;;;;0.60;0.60;;;11.00;87.00;;;;;;5104083;28;20198;-76
2021/05/08 04:05:39;;;;;;;0.70;0.70;;;11.00;87.00;;;;;;5099832;28;21706;-76
2021/05/08 04:08:05;;;;;;;0.73;0.73;;;10.90;87.00;;;;;;5103269;28;20597;-76
2021/05/08 04:10:31;;;;;;;0.80;0.70;;;10.90;87.40;;;;;;5102554;28;20320;-75
2021/05/08 04:12:56;;;;;;;0.70;0.70;;;10.90;87.20;;;;;;5104636;28;20189;-76
2021/05/08 04:15:22;;;;;;;0.80;0.80;;;10.90;87.10;;;;;;5099120;28;20601;-76
2021/05/08 04:17:48;;;;;;;0.73;0.70;;;10.90;87.20;;;;;;5103389;28;20362;-76
2021/05/08 04:20:13;;;;;;;0.90;0.90;;;10.90;87.20;;;;;;5102046;28;20189;-75
2021/05/08 04:22:40;;;;;;;0.73;0.73;;;10.90;87.00;;;;;;5104332;28;20563;-76
2021/05/08 04:25:06;;;;;;;0.90;0.90;;;10.80;87.00;;;;;;5102536;28;20236;-76
2021/05/08 04:27:31;;;;;;;0.67;0.67;;;10.80;86.60;;;;;;5105436;28;20177;-76
2021/05/08 04:29:57;;;;;;;0.50;0.50;;;10.80;86.50;;;;;;5095332;28;20701;-76
2021/05/08 04:32:23;;;;;;;0.43;0.43;;;10.80;86.50;;;;;;5103788;28;20185;-76
2021/05/08 04:34:49;;;;;;;0.50;0.50;;;10.80;86.20;;;;;;5100512;28;20178;-77
2021/05/08 04:37:15;;;;;;;0.60;0.60;;;10.80;86.00;;;;;;5100226;28;20642;-72
2021/05/08 04:39:41;;;;;;;0.40;0.40;;;10.80;85.80;;;;;;5101805;28;20186;-73
2021/05/08 04:42:07;;;;;;;2.97;0.60;;;10.70;85.80;;;;;;5102761;28;20174;-72
2021/05/08 04:44:32;;;;;;;0.50;0.50;;;10.70;85.90;;;;;;5105314;28;20209;-71
2021/05/08 04:46:58;;;;;;;0.33;0.33;;;10.80;85.50;;;;;;5106022;28;20177;-72
2021/05/08 04:49:24;;;;;;;0.40;0.40;;;10.80;85.20;;;;;;5104811;28;20184;-72
2021/05/08 04:51:53;;;;;;;0.33;0.33;;;10.70;85.20;;;;;;5105684;28;20178;-71
2021/05/08 04:54:19;;;;;;;0.50;0.50;;;10.70;85.30;;;;;;5103802;28;20585;-71
2021/05/08 04:56:46;;;;;;;0.40;0.40;;;10.80;85.30;;;;;;5103648;28;20289;-71
2021/05/08 04:59:12;;;;;;;0.33;0.33;;;10.80;85.10;;;;;;5103899;28;20222;-71
2021/05/08 05:01:37;;;;;;;0.33;0.33;;;10.90;84.80;;;;;;5107134;28;20257;-71
2021/05/08 05:04:03;;;;;;;0.40;0.40;;;10.90;84.40;;;;;;5103407;28;20229;-71
2021/05/08 05:06:29;;;;;;;0.30;0.30;;;10.90;84.40;;;;;;5107480;28;20650;-73
2021/05/08 05:08:55;;;;;;;0.57;0.50;;;11.00;84.50;;;;;;5105786;28;20699;-71
2021/05/08 05:11:22;;;;;;;0.60;0.50;;;11.10;84.30;;;;;;5107220;28;20718;-72
2021/05/08 05:13:48;;;;;;;0.40;0.40;;;11.20;83.90;;;;;;5103482;28;20311;-71
2021/05/08 05:16:14;;;;;;;0.40;0.40;;;11.30;83.80;;;;;;5105733;28;20186;-71
2021/05/08 05:18:40;;;;;;;0.20;0.20;;;11.30;83.40;;;;;;5105142;28;20189;-71
2021/05/08 05:21:06;;;;;;;0.57;0.37;;;11.30;83.10;;;;;;5106593;28;20269;-71
2021/05/08 05:23:32;;;;;;;0.30;0.30;;;11.20;83.20;;;;;;5103043;28;20206;-71
2021/05/08 05:25:57;;;;;;;0.30;0.30;;;11.20;83.20;;;;;;5107855;28;20273;-75
2021/05/08 05:28:25;;;;;;;0.30;0.30;;;11.30;83.00;;;;;;5100584;28;20177;-73
2021/05/08 05:30:51;;;;;;;0.30;0.30;;;11.30;82.90;;;;;;5106969;28;20174;-74
2021/05/08 05:33:17;;;;;;;0.30;0.30;;;11.40;82.50;;;;;;5104308;28;20189;-75
2021/05/08 05:35:43;;;;;;;0.40;0.40;;;11.40;82.50;;;;;;5103174;28;20169;-75
2021/05/08 05:38:09;;;;;;;0.30;0.30;;;11.50;82.10;;;;;;5106585;28;20209;-74
2021/05/08 05:40:35;;;;;;;0.30;0.30;;;11.50;81.30;;;;;;5109187;28;20640;-75
2021/05/08 05:43:01;;;;;;;0.30;0.30;;;11.50;81.30;;;;;;5103509;28;20186;-74
2021/05/08 05:45:27;;;;;;;0.40;0.40;;;11.60;81.30;;;;;;5088178;28;20195;-74
2021/05/08 05:48:01;;;;;;;0.40;0.40;;;11.60;81.30;;;;;;5103583;28;20187;-74
2021/05/08 05:50:29;;;;;;;0.30;0.30;;;11.60;81.40;;;;;;5102614;28;20211;-74
2021/05/08 05:52:55;;;;;;;0.97;0.40;;;11.60;81.40;;;;;;5101765;28;20188;-74
2021/05/08 05:55:25;;;;;;;0.40;0.40;;;11.70;81.20;;;;;;5107839;28;20210;-74
2021/05/08 05:57:53;;;;;;;4.73;0.47;;;11.70;81.30;;;;;;5098720;28;20210;-75
2021/05/08 06:00:19;;;;;;;0.30;0.30;;;11.70;81.20;;;;;;5106575;28;20181;-75
2021/05/08 06:02:45;;;;;;;4.63;0.30;;;11.70;81.00;;;;;;5104092;28;20601;-75
2021/05/08 06:05:11;;;;;;;0.30;0.30;;;11.70;81.10;;;;;;5103765;28;20217;-75
2021/05/08 06:07:38;;;;;;;0.30;0.30;;;11.60;81.00;;;;;;5099497;28;20186;-74
2021/05/08 06:10:06;;;;;;;0.30;0.30;;;11.60;81.30;;;;;;5105449;28;20186;-74
2021/05/08 06:12:32;;;;;;;0.20;0.20;;;11.50;81.60;;;;;;5101579;28;20190;-75
2021/05/08 06:14:58;;;;;;;0.40;0.40;;;11.50;81.60;;;;;;5103870;28;20258;-75
2021/05/08 06:17:24;;;;;;;0.30;0.30;;;11.50;81.90;;;;;;5103421;28;20269;-75
2021/05/08 06:19:49;;;;;;;0.47;0.40;;;11.50;81.80;;;;;;5105630;28;20182;-73
2021/05/08 06:22:15;;;;;;;1.13;0.30;;;11.50;81.40;;;;;;5104708;28;20704;-75
2021/05/08 06:27:27;;;;;;;0.40;0.40;;;11.40;81.40;;;;;;5106843;28;20650;-73
2021/05/08 06:29:52;;;;;;;0.40;0.40;;;11.50;81.60;;;;;;5100140;28;20169;-74
2021/05/08 06:32:18;;;;;;;0.30;0.30;;;11.60;81.50;;;;;;5105141;28;20211;-75
2021/05/08 06:34:44;;;;;;;0.30;0.30;;;11.60;81.00;;;;;;5102943;28;20182;-74
2021/05/08 06:37:10;;;;;;;0.30;0.30;;;11.80;80.90;;;;;;5103213;28;20589;-74
2021/05/08 06:39:35;;;;;;;0.22;0.22;;;11.90;80.20;;;;;;5104649;28;20190;-74
2021/05/08 06:42:01;;;;;;;0.43;0.43;;;12.10;80.00;;;;;;5096340;28;20189;-75
2021/05/08 06:44:27;;;;;;;0.40;0.40;;;12.30;79.30;;;;;;5098849;28;20213;-75
2021/05/08 06:46:56;;;;;;;0.40;0.40;;;12.40;78.20;;;;;;5078857;28;20521;-75
2021/05/08 06:49:22;;;;;;;0.40;0.40;;;12.50;77.80;;;;;;5098246;28;20718;-75
2021/05/08 06:51:48;;;;;;;0.47;0.47;;;12.60;77.60;;;;;;5095926;28;20575;-75
2021/05/08 06:54:14;;;;;;;0.40;0.40;;;12.60;77.50;;;;;;5078116;28;20187;-75
2021/05/08 06:56:40;;;;;;;0.40;0.40;;;12.50;77.60;;;;;;5099339;28;20226;-75
2021/05/08 06:59:06;;;;;;;0.52;0.52;;;12.50;77.90;;;;;;5099901;28;20593;-74
2021/05/08 07:01:31;;;;;;;0.50;0.50;;;12.50;77.60;;;;;;5099519;28;20182;-75
2021/05/08 07:03:58;;;;;;;0.65;0.65;;;12.50;77.50;;;;;;5096708;28;20210;-74
2021/05/08 07:06:26;;;;;;;0.50;0.50;;;12.60;77.80;;;;;;5105427;28;20775;-74
2021/05/08 07:08:53;;;;;;;0.63;0.63;;;12.70;77.50;;;;;;5103564;28;20185;-76
2021/05/08 07:11:19;;;;;;;0.50;0.50;;;12.90;77.50;;;;;;5103056;28;20687;-75
2021/05/08 07:13:44;;;;;;;0.60;0.60;;;12.90;76.60;;;;;;5099009;28;20618;-74
2021/05/08 07:16:10;;;;;;;0.47;0.47;;;12.90;76.60;;;;;;5086423;28;20197;-74
2021/05/08 07:18:36;;;;;;;0.60;0.60;;;12.90;76.60;;;;;;5097694;28;20598;-75
2021/05/08 07:21:02;;;;;;;0.50;0.50;;;12.90;76.80;;;;;;5104025;28;20178;-72
2021/05/08 07:23:27;;;;;;;0.73;0.70;;;12.90;76.90;;;;;;5101538;28;20284;-73
2021/05/08 07:25:53;;;;;;;1.08;1.08;;;12.80;77.00;;;;;;5105583;28;20314;-73
2021/05/08 07:28:20;;;;;;;0.73;0.73;;;12.60;77.30;;;;;;5095926;28;20182;-73
2021/05/08 07:30:48;;;;;;;0.63;0.63;;;12.50;77.10;;;;;;5103005;28;20284;-73
2021/05/08 07:33:16;;;;;;;0.52;0.52;;;12.40;77.20;;;;;;5100370;28;20234;-72
2021/05/08 07:35:43;;;;;;;0.80;0.80;;;12.40;77.50;;;;;;5103282;28;20188;-73
2021/05/08 07:38:09;;;;;;;0.90;0.90;;;12.40;77.60;;;;;;5095221;28;20272;-72
2021/05/08 07:40:36;;;;;;;0.90;0.77;;;12.40;77.80;;;;;;5101879;28;20571;-71
2021/05/08 07:43:02;;;;;;;0.82;0.82;;;12.50;77.70;;;;;;5100105;28;20239;-73
2021/05/08 07:45:29;;;;;;;0.82;0.82;;;12.60;77.60;;;;;;5101414;28;20181;-73
2021/05/08 07:47:57;;;;;;;0.70;0.70;;;12.60;77.50;;;;;;5094291;28;20182;-77
2021/05/08 07:50:23;;;;;;;0.80;0.80;;;12.70;77.50;;;;;;5098950;28;20627;-74
2021/05/08 07:52:48;;;;;;;0.68;0.68;;;12.80;77.00;;;;;;5099764;28;20178;-73
2021/05/08 07:55:14;;;;;;;0.80;0.80;;;12.80;76.50;;;;;;5101718;28;20272;-73
2021/05/08 07:57:41;;;;;;;0.73;0.73;;;12.80;76.90;;;;;;5100579;28;20588;-73
2021/05/08 08:00:08;;;;;;;0.68;0.68;;;12.80;76.70;;;;;;5103494;28;20181;-73
2021/05/08 08:02:36;;;;;;;1.10;1.10;;;12.80;76.30;;;;;;5101095;28;20178;-73
2021/05/08 08:05:04;;;;;;;0.80;0.80;;;13.00;76.10;;;;;;5084384;28;20262;-75
2021/05/08 08:07:30;;;;;;;0.70;0.70;;;13.10;75.60;;;;;;5100060;28;20193;-74
2021/05/08 08:09:56;;;;;;;0.68;0.68;;;13.20;75.00;;;;;;5101105;28;20185;-75
2021/05/08 08:12:22;;;;;;;0.80;0.80;;;13.30;74.70;;;;;;5100982;28;20260;-74
2021/05/08 08:14:48;;;;;;;0.60;0.60;;;13.30;74.70;;;;;;5099481;28;20750;-74
2021/05/08 08:17:14;;;;;;;0.77;0.77;;;13.30;74.60;;;;;;5101623;28;20182;-75
2021/05/08 08:19:40;;;;;;;0.70;0.70;;;13.20;74.10;;;;;;5099513;28;20181;-73
2021/05/08 08:22:06;;;;;;;1.90;0.80;;;13.10;74.20;;;;;;5097143;28;20241;-71
2021/05/08 08:24:31;;;;;;;0.68;0.68;;;13.00;74.60;;;;;;5104643;28;20767;-71
2021/05/08 08:26:57;;;;;;;0.75;0.75;;;13.10;74.80;;;;;;5094713;28;20820;-71
2021/05/08 08:29:25;;;;;;;0.95;0.95;;;13.00;75.20;;;;;;5099148;28;20254;-72
2021/05/08 08:31:51;;;;;;;0.70;0.70;;;12.90;75.60;;;;;;5098940;28;20189;-73
2021/05/08 08:34:17;;;;;;;0.88;0.88;;;12.90;75.80;;;;;;5100563;28;20181;-74
2021/05/08 08:36:42;;;;;;;1.00;1.00;;;13.00;75.70;;;;;;5101203;28;20181;-73
2021/05/08 08:39:08;;;;;;;1.10;1.10;;;13.00;75.50;;;;;;5102382;28;20268;-73
2021/05/08 08:41:34;;;;;;;2.58;1.02;;;13.20;75.50;;;;;;5100187;28;20189;-74
2021/05/08 08:44:01;;;;;;;0.93;0.90;;;13.30;75.00;;;;;;5101263;28;20209;-71
2021/05/08 08:46:26;;;;;;;1.13;1.13;;;13.30;74.80;;;;;;5100024;28;20184;-71
2021/05/08 08:48:52;;;;;;;1.23;1.17;;;13.30;74.80;;;;;;5097521;28;20178;-71
2021/05/08 08:51:18;;;;;;;9.40;1.10;;;13.30;74.50;;;;;;5098992;28;20324;-72
2021/05/08 08:53:48;;;;;;;3.50;1.40;;;13.30;74.60;;;;;;5100893;28;20192;-71
2021/05/08 08:56:15;;;;;;;1.00;1.00;;;13.30;74.40;;;;;;5097841;28;20195;-70
2021/05/08 08:58:43;;;;;;;1.08;1.08;;;13.40;74.90;;;;;;5101347;28;20281;-73
2021/05/08 09:01:09;;;;;;;1.30;1.23;;;13.50;74.60;;;;;;5100256;28;20289;-74
2021/05/08 09:03:35;;;;;;;1.15;1.15;;;13.60;74.40;;;;;;5100250;28;20209;-74
2021/05/08 09:06:02;;;;;;;1.00;1.00;;;13.80;74.30;;;;;;5100478;28;20729;-73
2021/05/08 09:08:29;;;;;;;1.00;1.00;;;13.90;73.60;;;;;;5103904;28;20182;-74
2021/05/08 09:11:21;;;;;;;1.50;1.50;;;14.20;73.60;;;;;;5099316;28;20703;-74
2021/05/08 09:13:47;;;;;;;1.02;1.02;;;14.40;72.70;;;;;;5097183;28;20589;-72
2021/05/08 09:16:13;;;;;;;1.10;1.10;;;14.70;71.80;;;;;;5100427;28;20199;-72
2021/05/08 09:18:40;;;;;;;1.15;1.15;;;14.90;71.40;;;;;;5099781;28;20186;-73
2021/05/08 09:21:26;;;;;;;0.93;0.93;;;15.00;70.90;;;;;;5096866;28;20264;-72
2021/05/08 09:23:58;;;;;;;1.40;1.30;;;15.00;70.00;;;;;;5101289;28;20205;-72
2021/05/08 09:26:23;;;;;;;1.20;1.20;;;15.10;69.70;;;;;;5101055;28;20177;-72
2021/05/08 09:28:53;;;;;;;0.80;0.80;;;15.20;69.60;;;;;;5100303;28;20192;-72
2021/05/08 09:31:19;;;;;;;2.83;1.20;;;15.30;69.00;;;;;;5101843;28;20264;-73
2021/05/08 09:33:52;;;;;;;1.30;1.30;;;15.40;68.90;;;;;;5102164;28;20220;-73
2021/05/08 09:36:19;;;;;;;1.30;1.30;;;15.50;68.90;;;;;;5103765;28;20185;-73
2021/05/08 09:38:45;;;;;;;1.08;1.08;;;15.70;68.10;;;;;;5098927;28;20190;-75
2021/05/08 09:41:16;;;;;;;1.00;1.00;;;15.90;67.70;;;;;;5098750;28;20243;-72
2021/05/08 09:43:43;;;;;;;1.38;1.30;;;16.10;67.00;;;;;;5104483;28;20205;-74
2021/05/08 09:46:24;;;;;;;1.50;1.40;;;16.30;66.60;;;;;;5099833;28;20186;-74
2021/05/08 09:49:12;;;;;;;0.95;0.95;;;16.50;66.50;;;;;;5088378;28;20181;-74
2021/05/08 09:51:38;;;;;;;1.00;1.00;;;16.60;66.00;;;;;;5103922;28;20219;-74
2021/05/08 09:54:09;;;;;;;0.95;0.95;;;16.90;65.90;;;;;;5101858;28;20194;-73
2021/05/08 09:56:39;;;;;;;1.23;1.23;;;17.00;65.20;;;;;;5106463;28;20189;-74
2021/05/08 09:59:23;;;;;;;1.08;1.08;;;16.90;65.10;;;;;;5102139;28;20182;-73
2021/05/08 10:02:01;;;;;;;0.85;0.85;;;17.00;65.10;;;;;;5105331;28;20336;-74
2021/05/08 10:04:34;;;;;;;0.90;0.90;;;17.20;64.80;;;;;;5101373;28;20214;-73
2021/05/08 10:07:14;;;;;;;1.38;1.00;;;17.40;64.40;;;;;;5120621;27;20645;-74
2021/05/08 10:09:42;;;;;;;1.02;1.02;;;17.50;64.20;;;;;;5100627;28;20181;-73
2021/05/08 10:12:09;;;;;;;1.20;1.20;;;17.60;64.10;;;;;;5099908;28;20178;-73
2021/05/08 10:14:36;;;;;;;0.95;0.95;;;17.70;63.90;;;;;;5101526;28;20193;-73
2021/05/08 10:17:02;;;;;;;1.85;1.15;;;17.70;63.30;;;;;;5101254;28;20625;-73
2021/05/08 10:19:30;;;;;;;1.67;0.80;;;17.70;63.10;;;;;;5103927;28;20185;-74
2021/05/08 10:22:02;;;;;;;0.90;0.90;;;17.70;62.80;;;;;;5104083;28;20670;-74
2021/05/08 10:24:29;;;;;;;1.20;0.93;;;17.70;62.20;;;;;;5106311;28;20709;-73
2021/05/08 10:27:00;;;;;;;0.90;0.90;;;17.70;62.60;;;;;;5102127;28;20181;-74
2021/05/08 10:29:47;;;;;;;0.95;0.95;;;17.90;62.40;;;;;;5099144;28;20173;-74
2021/05/08 10:32:16;;;;;;;0.70;0.70;;;18.20;61.50;;;;;;5102275;28;20280;-74
2021/05/08 10:35:02;;;;;;;1.02;0.98;;;18.60;61.20;;;;;;5104976;28;20618;-74
2021/05/08 10:37:29;;;;;;;0.80;0.80;;;19.00;60.30;;;;;;5101617;28;20202;-74
2021/05/08 10:39:56;;;;;;;1.08;0.75;;;19.20;60.00;;;;;;5101829;28;20687;-74
2021/05/08 10:42:49;;;;;;;1.00;1.00;;;19.30;59.50;;;;;;5103122;28;20173;-74
2021/05/08 10:45:18;;;;;;;2.22;1.10;;;19.10;58.50;;;;;;5101562;28;20259;-73
2021/05/08 10:47:55;;;;;;;1.75;0.80;;;18.80;58.60;;;;;;5101068;28;20708;-73
2021/05/08 10:50:54;;;;;;;1.45;0.80;;;18.40;58.10;;;;;;5097154;28;20565;-74
2021/05/08 10:53:20;;;;;;;1.02;0.70;;;18.10;58.80;;;;;;5097552;28;20177;-73
2021/05/08 10:55:59;;;;;;;0.85;0.85;;;18.10;59.00;;;;;;5104029;28;20292;-73
2021/05/08 10:58:38;;;;;;;0.80;0.80;;;18.10;59.00;;;;;;5098799;28;20188;-73
2021/05/08 11:01:06;;;;;;;0.70;0.70;;;18.30;58.50;;;;;;5098151;28;20225;-74
2021/05/08 11:03:53;;;;;;;3.88;0.73;;;18.20;57.30;;;;;;5099096;28;20702;-74
2021/05/08 11:06:23;;;;;;;0.68;0.68;;;18.30;57.90;;;;;;5097865;28;20187;-74
2021/05/08 11:08:52;;;;;;;0.60;0.60;;;18.60;57.70;;;;;;5101804;28;20273;-75
2021/05/08 11:11:25;;;;;;;1.10;0.77;;;18.80;57.80;;;;;;5102157;28;20262;-74
2021/05/08 11:14:02;;;;;;;0.85;0.85;;;19.00;57.90;;;;;;5102727;28;20704;-75
2021/05/08 11:16:29;;;;;;;0.80;0.80;;;19.30;57.20;;;;;;5085243;28;20193;-73
2021/05/08 11:18:58;;;;;;;0.77;0.77;;;19.70;56.90;;;;;;5096486;28;20170;-74
2021/05/08 11:21:30;;;;;;;0.70;0.70;;;20.50;56.20;;;;;;5099582;28;20228;-75
2021/05/08 11:23:59;;;;;;;0.68;0.68;;;21.40;54.80;;;;;;5100983;28;20229;-76
2021/05/08 11:26:28;;;;;;;0.65;0.65;;;21.90;52.80;;;;;;5100674;28;20632;-76
2021/05/08 11:29:00;;;;;;;0.80;0.80;;;22.10;52.80;;;;;;5083953;28;20930;-74
2021/05/08 11:31:29;;;;;;;0.60;0.60;;;22.60;52.50;;;;;;5103547;28;20201;-74
2021/05/08 11:34:09;;;;;;;0.80;0.80;;;23.40;52.10;;;;;;5102436;28;20184;-74
2021/05/08 11:36:55;;;;;;;0.73;0.73;;;24.20;51.40;;;;;;5099049;28;20190;-72
2021/05/08 11:39:29;;;;;;;0.77;0.77;;;24.90;50.30;;;;;;5100769;28;20192;-73
2021/05/08 11:41:57;;;;;;;0.70;0.70;;;25.50;49.30;;;;;;5102176;28;20178;-74
2021/05/08 11:44:24;;;;;;;0.70;0.70;;;25.70;48.40;;;;;;5100307;28;20283;-76
2021/05/08 11:46:57;;;;;;;1.95;0.73;;;25.90;48.40;;;;;;5100196;28;20729;-74
2021/05/08 11:49:30;;;;;;;0.80;0.80;;;26.20;48.30;;;;;;5100481;28;20650;-75
2021/05/08 11:51:57;;;;;;;0.63;0.63;;;26.30;48.40;;;;;;5098606;28;20169;-74
2021/05/08 11:54:23;;;;;;;0.70;0.70;;;26.80;48.50;;;;;;5100274;28;20212;-76
2021/05/08 11:56:49;;;;;;;0.75;0.75;;;26.90;47.70;;;;;;5101677;28;20178;-75
2021/05/08 11:59:14;;;;;;;0.77;0.70;;;26.80;47.40;;;;;;5098535;28;20290;-76
2021/05/08 12:01:40;;;;;;;0.60;0.60;;;27.00;47.70;;;;;;5097738;28;20179;-75
2021/05/08 12:04:06;;;;;;;0.63;0.63;;;26.80;46.20;;;;;;5091437;28;20676;-75
2021/05/08 12:06:33;;;;;;;0.60;0.60;;;26.30;47.30;;;;;;5105674;28;20182;-75
2021/05/08 12:09:09;;;;;;;0.70;0.70;;;26.30;47.30;;;;;;5094958;28;20197;-75
2021/05/08 12:11:34;;;;;;;0.60;0.60;;;26.10;47.30;;;;;;5100271;28;20169;-76
2021/05/08 12:14:14;;;;;;;0.70;0.70;;;26.30;47.60;;;;;;5100074;28;20781;-74
2021/05/08 12:16:41;;;;;;;0.70;0.70;;;26.80;47.00;;;;;;5100454;28;20193;-73
2021/05/08 12:19:07;;;;;;;1.50;0.60;;;27.30;46.50;;;;;;5102658;28;21916;-73
2021/05/08 12:21:34;;;;;;;0.68;0.68;;;27.60;45.70;;;;;;5101149;28;20182;-72
2021/05/08 12:26:50;;;;;;;0.50;0.50;;;27.80;46.20;;;;;;5101166;28;20332;-73
2021/05/08 12:29:16;;;;;;;1.55;0.80;;;28.10;45.00;;;;;;5096341;28;20581;-74
2021/05/08 12:31:48;;;;;;;0.52;0.50;;;28.30;45.70;;;;;;5096284;28;20182;-73
2021/05/08 12:34:16;;;;;;;0.60;0.60;;;28.70;45.40;;;;;;5100148;28;20178;-73
2021/05/08 12:36:59;;;;;;;0.63;0.63;;;29.20;45.30;;;;;;5100294;28;20185;-73
2021/05/08 12:39:26;;;;;;;0.60;0.60;;;29.60;43.50;;;;;;5105402;28;20177;-73
2021/05/08 12:41:59;;;;;;;0.63;0.40;;;29.60;44.10;;;;;;5097444;28;20185;-73
2021/05/08 12:44:33;;;;;;;0.82;0.82;;;29.50;43.80;;;;;;5101312;28;20210;-73
2021/05/08 12:47:15;;;;;;;1.00;0.60;;;29.20;43.40;;;;;;5103021;28;20184;-74
2021/05/08 12:50:07;;;;;;;0.57;0.57;;;28.80;43.60;;;;;;5096916;28;20197;-74
2021/05/08 12:52:35;;;;;;;1.88;0.60;;;28.10;44.00;;;;;;5099410;28;20180;-73
2021/05/08 12:55:02;;;;;;;1.85;0.50;;;27.70;46.00;;;;;;5103852;28;20235;-74
2021/05/08 12:57:32;;;;;;;0.60;0.60;;;27.80;46.10;;;;;;5103249;28;20269;-74
2021/05/08 13:00:00;;;;;;;0.40;0.40;;;28.20;45.40;;;;;;5099618;28;20909;-74